createdAt,value
2022-10-14T00:00:09.183Z,15.10
2022-10-14T00:01:09.142Z,15.14
2022-10-14T00:02:09.224Z,15.11
2022-10-14T00:03:09.103Z,15.15
2022-10-14T00:04:09.089Z,15.15
2022-10-14T00:05:09.065Z,15.12
2022-10-14T00:06:09.053Z,15.14
2022-10-14T00:07:09.028Z,15.14
2022-10-14T00:08:09.011Z,15.14
2022-10-14T00:09:08.995Z,15.10
2022-10-14T00:10:08.979Z,15.03
2022-10-14T00:11:08.954Z,14.99
2022-10-14T00:12:08.939Z,15.03
2022-10-14T00:13:08.922Z,14.99
2022-10-14T00:14:08.902Z,15.04
2022-10-14T00:15:08.886Z,15.01
2022-10-14T00:16:08.883Z,14.93
2022-10-14T00:17:08.846Z,14.96
2022-10-14T00:18:08.833Z,15.05
2022-10-14T00:19:08.809Z,14.90
2022-10-14T00:20:08.789Z,14.86
2022-10-14T00:21:08.771Z,14.83
2022-10-14T00:22:08.757Z,14.89
2022-10-14T00:23:08.733Z,14.74
2022-10-14T00:24:08.719Z,14.79
2022-10-14T00:25:08.696Z,14.85
2022-10-14T00:26:08.682Z,14.86
2022-10-14T00:27:08.658Z,14.90
2022-10-14T00:28:08.646Z,14.90
2022-10-14T00:29:08.624Z,14.78
2022-10-14T00:30:08.605Z,14.90
2022-10-14T00:31:08.585Z,14.85
2022-10-14T00:32:08.586Z,14.79
2022-10-14T00:33:08.552Z,14.79
2022-10-14T00:34:08.531Z,14.78
2022-10-14T00:35:08.510Z,14.73
2022-10-14T00:36:08.496Z,14.71
2022-10-14T00:37:08.472Z,14.70
2022-10-14T00:38:08.457Z,14.74
2022-10-14T00:39:08.437Z,14.67
2022-10-14T00:40:08.423Z,14.79
2022-10-14T00:41:08.396Z,14.71
2022-10-14T00:42:08.380Z,14.77
2022-10-14T00:43:08.363Z,14.77
2022-10-14T00:44:08.345Z,14.77
2022-10-14T00:45:08.328Z,14.77
2022-10-14T00:46:08.306Z,14.93
2022-10-14T00:47:08.289Z,14.87
2022-10-14T00:48:08.295Z,14.86
2022-10-14T00:49:08.254Z,14.90
2022-10-14T00:50:08.234Z,14.93
2022-10-14T00:51:08.213Z,14.92
2022-10-14T00:52:08.203Z,14.97
2022-10-14T00:53:08.177Z,15.01
2022-10-14T00:54:08.165Z,14.93
2022-10-14T00:55:08.136Z,14.95
2022-10-14T00:56:08.121Z,15.01
2022-10-14T00:57:08.104Z,15.03
2022-10-14T00:58:08.080Z,15.10
2022-10-14T00:59:08.068Z,15.12
2022-10-14T01:00:08.070Z,15.05
2022-10-14T01:01:08.166Z,15.07
2022-10-14T01:02:08.011Z,15.10
2022-10-14T01:03:07.995Z,15.17
2022-10-14T01:04:07.993Z,15.15
2022-10-14T01:05:07.954Z,15.22
2022-10-14T01:06:07.935Z,15.10
2022-10-14T01:07:07.912Z,15.25
2022-10-14T01:08:07.898Z,15.23
2022-10-14T01:09:07.882Z,15.23
2022-10-14T01:10:07.859Z,15.22
2022-10-14T01:11:07.842Z,15.26
2022-10-14T01:12:28.028Z,15.25
2022-10-14T01:13:07.806Z,15.25
2022-10-14T01:14:07.787Z,15.19
2022-10-14T01:15:07.777Z,15.23
2022-10-14T01:16:07.754Z,15.27
2022-10-14T01:17:07.752Z,15.25
2022-10-14T01:18:07.713Z,15.25
2022-10-14T01:19:07.699Z,15.22
2022-10-14T01:20:07.696Z,15.20
2022-10-14T01:21:07.658Z,15.27
2022-10-14T01:22:07.644Z,15.25
2022-10-14T01:23:07.622Z,15.27
2022-10-14T01:24:07.610Z,15.25
2022-10-14T01:25:07.582Z,15.25
2022-10-14T01:26:07.568Z,15.23
2022-10-14T01:27:07.545Z,15.04
2022-10-14T01:28:07.534Z,15.07
2022-10-14T01:29:07.508Z,15.15
2022-10-14T01:30:07.490Z,15.05
2022-10-14T01:31:07.471Z,15.14
2022-10-14T01:32:07.455Z,15.10
2022-10-14T01:33:07.438Z,14.96
2022-10-14T01:34:07.417Z,14.95
2022-10-14T01:35:07.398Z,14.99
2022-10-14T01:36:07.407Z,14.99
2022-10-14T01:37:07.359Z,14.99
2022-10-14T01:38:07.345Z,14.99
2022-10-14T01:39:07.326Z,14.95
2022-10-14T01:40:07.309Z,15.01
2022-10-14T01:41:07.290Z,14.97
2022-10-14T01:42:07.274Z,14.97
2022-10-14T01:43:07.252Z,15.04
2022-10-14T01:44:07.233Z,14.96
2022-10-14T01:45:07.215Z,14.97
2022-10-14T01:46:07.196Z,15.03
2022-10-14T01:47:07.177Z,14.99
2022-10-14T01:48:07.169Z,14.97
2022-10-14T01:49:07.157Z,14.99
2022-10-14T01:50:07.124Z,15.01
2022-10-14T01:51:07.110Z,15.05
2022-10-14T01:52:07.101Z,14.95
2022-10-14T01:53:07.073Z,14.93
2022-10-14T01:54:07.049Z,14.95
2022-10-14T01:55:07.030Z,14.90
2022-10-14T01:56:07.012Z,14.89
2022-10-14T01:57:07.000Z,14.89
2022-10-14T01:58:06.976Z,14.92
2022-10-14T01:59:06.958Z,14.92
2022-10-14T02:00:06.938Z,14.99
2022-10-14T02:01:06.916Z,14.99
2022-10-14T02:02:06.982Z,14.92
2022-10-14T02:03:06.879Z,14.92
2022-10-14T02:04:06.861Z,14.82
2022-10-14T02:05:06.841Z,14.86
2022-10-14T02:06:06.824Z,14.82
2022-10-14T02:07:06.810Z,14.79
2022-10-14T02:08:06.811Z,14.85
2022-10-14T02:09:06.775Z,14.87
2022-10-14T02:10:06.749Z,14.79
2022-10-14T02:11:06.734Z,14.83
2022-10-14T02:12:06.713Z,14.87
2022-10-14T02:13:06.692Z,14.83
2022-10-14T02:14:06.677Z,14.85
2022-10-14T02:15:06.654Z,14.92
2022-10-14T02:16:06.638Z,14.90
2022-10-14T02:17:06.619Z,14.92
2022-10-14T02:18:06.603Z,14.93
2022-10-14T02:19:06.584Z,14.93
2022-10-14T02:20:06.568Z,14.90
2022-10-14T02:21:06.547Z,14.97
2022-10-14T02:22:06.524Z,14.93
2022-10-14T02:23:06.505Z,14.83
2022-10-14T02:24:06.510Z,14.86
2022-10-14T02:25:06.472Z,14.89
2022-10-14T02:26:06.454Z,14.90
2022-10-14T02:27:06.432Z,14.86
2022-10-14T02:28:06.414Z,14.85
2022-10-14T02:29:06.396Z,14.86
2022-10-14T02:30:06.379Z,14.89
2022-10-14T02:31:06.361Z,14.93
2022-10-14T02:32:06.341Z,14.93
2022-10-14T02:33:06.320Z,14.87
2022-10-14T02:34:06.306Z,14.95
2022-10-14T02:35:06.285Z,14.90
2022-10-14T02:36:06.273Z,14.90
2022-10-14T02:37:06.244Z,14.87
2022-10-14T02:38:06.227Z,14.93
2022-10-14T02:39:06.209Z,14.92
2022-10-14T02:40:06.213Z,14.99
2022-10-14T02:41:06.179Z,14.99
2022-10-14T02:42:06.156Z,15.04
2022-10-14T02:43:06.132Z,14.99
2022-10-14T02:44:06.119Z,15.05
2022-10-14T02:45:06.099Z,15.05
2022-10-14T02:46:06.082Z,15.05
2022-10-14T02:47:06.066Z,14.95
2022-10-14T02:48:06.069Z,14.99
2022-10-14T02:49:06.044Z,14.96
2022-10-14T02:50:06.040Z,15.01
2022-10-14T02:51:05.987Z,14.90
2022-10-14T02:52:05.971Z,15.03
2022-10-14T02:53:05.948Z,15.04
2022-10-14T02:54:05.936Z,14.92
2022-10-14T02:55:05.912Z,14.92
2022-10-14T02:56:05.917Z,14.92
2022-10-14T02:57:05.874Z,14.97
2022-10-14T02:58:05.854Z,15.04
2022-10-14T02:59:05.840Z,14.99
2022-10-14T03:00:05.822Z,14.99
2022-10-14T03:01:05.806Z,14.99
2022-10-14T03:02:05.824Z,14.95
2022-10-14T03:03:05.769Z,14.92
2022-10-14T03:04:05.745Z,14.93
2022-10-14T03:05:05.729Z,14.90
2022-10-14T03:06:05.705Z,15.05
2022-10-14T03:07:05.694Z,15.03
2022-10-14T03:08:05.674Z,14.92
2022-10-14T03:09:05.657Z,14.93
2022-10-14T03:10:05.635Z,14.86
2022-10-14T03:11:05.620Z,14.95
2022-10-14T03:12:05.618Z,14.93
2022-10-14T03:13:05.578Z,14.89
2022-10-14T03:14:05.558Z,14.90
2022-10-14T03:15:05.544Z,14.90
2022-10-14T03:16:05.525Z,14.77
2022-10-14T03:17:05.505Z,14.77
2022-10-14T03:18:05.488Z,14.87
2022-10-14T03:19:05.466Z,14.83
2022-10-14T03:20:05.449Z,14.86
2022-10-14T03:21:05.434Z,14.87
2022-10-14T03:22:05.411Z,14.83
2022-10-14T03:23:05.394Z,14.90
2022-10-14T03:24:05.372Z,14.89
2022-10-14T03:25:05.361Z,14.92
2022-10-14T03:26:05.333Z,14.90
2022-10-14T03:27:05.335Z,14.95
2022-10-14T03:28:05.327Z,14.92
2022-10-14T03:29:05.291Z,14.92
2022-10-14T03:30:05.264Z,14.86
2022-10-14T03:31:05.247Z,14.73
2022-10-14T03:32:05.228Z,14.82
2022-10-14T03:33:05.211Z,14.74
2022-10-14T03:34:05.192Z,14.78
2022-10-14T03:35:05.170Z,14.78
2022-10-14T03:36:05.155Z,14.83
2022-10-14T03:37:05.134Z,14.82
2022-10-14T03:38:05.113Z,14.78
2022-10-14T03:39:05.098Z,14.82
2022-10-14T03:40:05.078Z,14.79
2022-10-14T03:41:05.061Z,14.82
2022-10-14T03:42:05.038Z,14.90
2022-10-14T03:43:05.024Z,14.82
2022-10-14T03:44:05.020Z,14.79
2022-10-14T03:45:04.986Z,14.87
2022-10-14T03:46:04.963Z,14.83
2022-10-14T03:47:04.947Z,14.86
2022-10-14T03:48:04.928Z,14.86
2022-10-14T03:49:04.913Z,14.86
2022-10-14T03:50:04.894Z,14.85
2022-10-14T03:51:04.876Z,14.86
2022-10-14T03:52:04.854Z,14.83
2022-10-14T03:53:04.839Z,14.87
2022-10-14T03:54:04.819Z,14.83
2022-10-14T03:55:04.800Z,14.87
2022-10-14T03:56:04.777Z,14.86
2022-10-14T03:57:04.764Z,14.90
2022-10-14T03:58:04.742Z,14.87
2022-10-14T03:59:04.722Z,14.86
2022-10-14T04:00:04.727Z,14.83
2022-10-14T04:01:04.687Z,14.79
2022-10-14T04:02:04.755Z,14.83
2022-10-14T04:03:04.648Z,14.79
2022-10-14T04:04:04.631Z,14.77
2022-10-14T04:05:04.617Z,14.82
2022-10-14T04:06:04.596Z,14.74
2022-10-14T04:07:04.576Z,14.82
2022-10-14T04:08:04.558Z,14.78
2022-10-14T04:09:04.548Z,14.78
2022-10-14T04:10:04.523Z,14.79
2022-10-14T04:11:04.505Z,14.77
2022-10-14T04:12:04.485Z,14.74
2022-10-14T04:13:04.465Z,14.79
2022-10-14T04:14:04.446Z,14.79
2022-10-14T04:15:04.434Z,14.70
2022-10-14T04:16:04.428Z,14.77
2022-10-14T04:17:04.390Z,14.71
2022-10-14T04:18:04.369Z,14.74
2022-10-14T04:19:04.349Z,14.77
2022-10-14T04:20:04.343Z,14.78
2022-10-14T04:21:04.319Z,14.69
2022-10-14T04:22:04.298Z,14.67
2022-10-14T04:23:04.277Z,14.63
2022-10-14T04:24:08.188Z,14.56
2022-10-14T04:25:04.241Z,14.59
2022-10-14T04:26:04.227Z,14.58
2022-10-14T04:27:04.202Z,14.64
2022-10-14T04:28:04.185Z,14.64
2022-10-14T04:29:04.169Z,14.67
2022-10-14T04:30:04.149Z,14.70
2022-10-14T04:31:04.128Z,14.70
2022-10-14T04:32:04.128Z,14.78
2022-10-14T04:33:04.092Z,14.79
2022-10-14T04:34:04.067Z,14.79
2022-10-14T04:35:04.055Z,14.78
2022-10-14T04:36:04.036Z,14.67
2022-10-14T04:37:04.017Z,14.71
2022-10-14T04:38:03.993Z,14.77
2022-10-14T04:39:03.978Z,14.69
2022-10-14T04:40:03.964Z,14.56
2022-10-14T04:41:03.944Z,14.59
2022-10-14T04:42:03.927Z,14.67
2022-10-14T04:43:03.906Z,14.70
2022-10-14T04:44:03.882Z,14.67
2022-10-14T04:45:03.866Z,14.77
2022-10-14T04:46:03.848Z,14.70
2022-10-14T04:47:03.828Z,14.74
2022-10-14T04:48:03.829Z,14.73
2022-10-14T04:49:03.792Z,14.73
2022-10-14T04:50:03.773Z,14.77
2022-10-14T04:51:03.752Z,14.77
2022-10-14T04:52:03.735Z,14.70
2022-10-14T04:53:03.713Z,14.74
2022-10-14T04:54:03.695Z,14.78
2022-10-14T04:55:03.678Z,14.83
2022-10-14T04:56:03.664Z,14.73
2022-10-14T04:57:03.641Z,14.77
2022-10-14T04:58:03.631Z,14.79
2022-10-14T04:59:03.605Z,14.79
2022-10-14T05:00:03.586Z,14.83
2022-10-14T05:01:03.568Z,14.89
2022-10-14T05:02:03.646Z,14.86
2022-10-14T05:03:03.529Z,14.82
2022-10-14T05:04:03.528Z,14.79
2022-10-14T05:05:03.489Z,14.92
2022-10-14T05:06:03.472Z,14.87
2022-10-14T05:07:03.455Z,14.82
2022-10-14T05:08:03.435Z,14.86
2022-10-14T05:09:03.416Z,14.86
2022-10-14T05:10:03.400Z,14.79
2022-10-14T05:11:03.380Z,14.89
2022-10-14T05:12:03.366Z,14.87
2022-10-14T05:13:03.361Z,14.83
2022-10-14T05:14:03.329Z,14.78
2022-10-14T05:15:03.302Z,14.89
2022-10-14T05:16:03.285Z,14.85
2022-10-14T05:17:03.272Z,14.83
2022-10-14T05:18:03.248Z,14.74
2022-10-14T05:19:03.231Z,14.82
2022-10-14T05:20:03.229Z,14.82
2022-10-14T05:21:03.196Z,14.82
2022-10-14T05:22:03.174Z,14.73
2022-10-14T05:23:03.157Z,14.74
2022-10-14T05:24:03.142Z,14.78
2022-10-14T05:25:03.127Z,14.69
2022-10-14T05:26:03.096Z,14.69
2022-10-14T05:27:03.087Z,14.69
2022-10-14T05:28:03.065Z,14.74
2022-10-14T05:29:03.042Z,14.70
2022-10-14T05:30:03.024Z,14.78
2022-10-14T05:31:03.008Z,14.82
2022-10-14T05:32:02.987Z,14.79
2022-10-14T05:33:02.973Z,14.77
2022-10-14T05:34:02.952Z,14.74
2022-10-14T05:35:02.933Z,14.82
2022-10-14T05:36:02.934Z,14.78
2022-10-14T05:37:02.900Z,14.83
2022-10-14T05:38:04.343Z,14.79
2022-10-14T05:39:02.863Z,14.87
2022-10-14T05:40:02.846Z,14.83
2022-10-14T05:41:02.823Z,14.90
2022-10-14T05:42:02.801Z,14.90
2022-10-14T05:43:02.789Z,14.85
2022-10-14T05:44:02.769Z,14.78
2022-10-14T05:45:02.769Z,14.90
2022-10-14T05:46:02.726Z,14.85
2022-10-14T05:47:02.739Z,14.87
2022-10-14T05:48:02.694Z,14.90
2022-10-14T05:49:02.668Z,14.92
2022-10-14T05:50:02.653Z,14.90
2022-10-14T05:51:02.668Z,14.87
2022-10-14T05:52:02.636Z,14.90
2022-10-14T05:53:02.597Z,14.82
2022-10-14T05:54:02.589Z,14.86
2022-10-14T05:55:02.560Z,14.87
2022-10-14T05:56:02.541Z,14.78
2022-10-14T05:57:02.527Z,14.83
2022-10-14T05:58:02.501Z,14.83
2022-10-14T05:59:02.490Z,14.78
2022-10-14T06:00:02.495Z,14.82
2022-10-14T06:01:02.983Z,14.74
2022-10-14T06:02:02.697Z,14.82
2022-10-14T06:03:02.800Z,14.83
2022-10-14T06:04:02.424Z,14.73
2022-10-14T06:05:02.382Z,14.89
2022-10-14T06:06:03.270Z,14.79
2022-10-14T06:07:03.821Z,14.77
2022-10-14T06:08:03.751Z,14.74
2022-10-14T06:09:03.977Z,14.82
2022-10-14T06:10:02.305Z,14.78
2022-10-14T06:11:02.279Z,14.82
2022-10-14T06:12:02.251Z,14.83
2022-10-14T06:13:02.238Z,14.86
2022-10-14T06:14:02.206Z,14.83
2022-10-14T06:15:02.197Z,14.87
2022-10-14T06:16:03.532Z,14.86
2022-10-14T06:17:02.787Z,14.79
2022-10-14T06:18:02.156Z,14.85
2022-10-14T06:19:02.442Z,14.73
2022-10-14T06:20:05.171Z,14.71
2022-10-14T06:21:02.291Z,14.78
2022-10-14T06:22:02.313Z,14.77
2022-10-14T06:24:02.040Z,14.69
2022-10-14T06:25:04.486Z,14.79
2022-10-14T06:26:01.982Z,14.73
2022-10-14T06:27:01.963Z,14.77
2022-10-14T06:28:01.946Z,14.69
2022-10-14T06:29:01.988Z,14.78
2022-10-14T06:30:01.905Z,14.78
2022-10-14T06:31:01.886Z,14.78
2022-10-14T06:32:01.872Z,14.71
2022-10-14T06:33:01.852Z,14.67
2022-10-14T06:34:01.831Z,14.77
2022-10-14T06:35:01.817Z,14.69
2022-10-14T06:36:01.793Z,14.77
2022-10-14T06:37:02.576Z,14.73
2022-10-14T06:38:02.293Z,14.69
2022-10-14T06:39:02.064Z,14.77
2022-10-14T06:40:01.777Z,14.64
2022-10-14T06:42:01.683Z,14.64
2022-10-14T06:43:01.666Z,14.58
2022-10-14T06:44:01.650Z,14.49
2022-10-14T06:45:01.630Z,14.59
2022-10-14T06:46:01.623Z,14.45
2022-10-14T06:47:01.589Z,14.48
2022-10-14T06:48:01.571Z,14.59
2022-10-14T06:49:01.553Z,14.55
2022-10-14T06:50:01.542Z,14.56
2022-10-14T06:51:01.514Z,14.49
2022-10-14T06:52:01.497Z,14.59
2022-10-14T06:53:01.474Z,14.63
2022-10-14T06:54:01.454Z,14.56
2022-10-14T06:55:01.437Z,14.59
2022-10-14T06:56:01.443Z,14.63
2022-10-14T06:57:01.407Z,14.58
2022-10-14T06:58:01.382Z,14.56
2022-10-14T06:59:01.362Z,14.56
2022-10-14T07:00:01.342Z,14.70
2022-10-14T07:01:01.344Z,14.67
2022-10-14T07:02:01.406Z,14.69
2022-10-14T07:03:01.288Z,14.67
2022-10-14T07:04:01.874Z,14.67
2022-10-14T07:05:01.250Z,14.69
2022-10-14T07:06:01.229Z,14.73
2022-10-14T07:07:01.227Z,14.73
2022-10-14T07:09:01.172Z,14.78
2022-10-14T07:10:01.157Z,14.77
2022-10-14T07:11:01.136Z,14.82
2022-10-14T07:12:01.141Z,14.82
2022-10-14T07:13:01.096Z,14.92
2022-10-14T07:14:01.085Z,14.86
2022-10-14T07:15:01.061Z,14.77
2022-10-14T07:16:01.038Z,14.82
2022-10-14T07:17:01.056Z,14.89
2022-10-14T07:18:01.005Z,14.79
2022-10-14T07:19:00.984Z,14.82
2022-10-14T07:20:00.967Z,14.86
2022-10-14T07:21:00.950Z,14.77
2022-10-14T07:22:00.930Z,14.83
2022-10-14T07:23:00.924Z,14.83
2022-10-14T07:24:00.888Z,14.74
2022-10-14T07:25:00.874Z,14.82
2022-10-14T07:26:00.852Z,14.86
2022-10-14T07:27:00.834Z,14.90
2022-10-14T07:28:00.836Z,14.87
2022-10-14T07:29:00.869Z,14.92
2022-10-14T07:30:00.783Z,14.89
2022-10-14T07:31:00.768Z,14.83
2022-10-14T07:32:00.738Z,14.79
2022-10-14T07:33:00.720Z,14.87
2022-10-14T07:34:00.703Z,14.83
2022-10-14T07:35:00.687Z,14.85
2022-10-14T07:36:00.665Z,14.83
2022-10-14T07:37:00.649Z,14.93
2022-10-14T07:38:00.628Z,14.95
2022-10-14T07:39:00.605Z,14.92
2022-10-14T07:40:00.590Z,14.92
2022-10-14T07:41:00.600Z,14.96
2022-10-14T07:42:00.554Z,14.95
2022-10-14T07:43:00.547Z,14.99
2022-10-14T07:44:00.534Z,14.95
2022-10-14T07:45:00.494Z,14.99
2022-10-14T07:46:00.476Z,14.95
2022-10-14T07:47:00.457Z,14.99
2022-10-14T07:48:00.436Z,14.99
2022-10-14T07:49:00.423Z,14.95
2022-10-14T07:50:00.408Z,15.03
2022-10-14T07:51:00.395Z,15.04
2022-10-14T07:52:00.363Z,15.07
2022-10-14T07:53:01.560Z,15.05
2022-10-14T07:54:00.325Z,15.10
2022-10-14T07:55:00.306Z,15.07
2022-10-14T07:56:00.289Z,15.12
2022-10-14T07:57:00.264Z,15.12
2022-10-14T07:58:00.246Z,15.10
2022-10-14T07:59:00.229Z,15.10
2022-10-14T08:00:00.237Z,15.14
2022-10-14T08:01:00.202Z,15.17
2022-10-14T08:02:00.291Z,15.17
2022-10-14T08:03:00.153Z,15.25
2022-10-14T08:04:00.138Z,15.23
2022-10-14T08:05:19.019Z,15.45
2022-10-14T08:06:00.101Z,15.56
2022-10-14T08:07:00.112Z,15.70
2022-10-14T08:08:00.099Z,15.73
2022-10-14T08:09:00.050Z,16.10
2022-10-14T08:10:00.025Z,16.59
2022-10-14T08:11:00.005Z,16.37
2022-10-14T08:11:59.988Z,16.37
2022-10-14T08:12:59.973Z,16.29
2022-10-14T08:13:59.973Z,16.44
2022-10-14T08:14:59.937Z,16.52
2022-10-14T08:15:59.943Z,16.51
2022-10-14T08:16:59.901Z,16.52
2022-10-14T08:17:59.883Z,16.44
2022-10-14T08:18:59.866Z,16.51
2022-10-14T08:19:59.851Z,16.47
2022-10-14T08:20:59.835Z,16.22
2022-10-14T08:21:59.819Z,16.33
2022-10-14T08:22:59.799Z,16.32
2022-10-14T08:23:59.783Z,16.21
2022-10-14T08:24:59.767Z,16.09
2022-10-14T08:25:59.752Z,16.08
2022-10-14T08:26:59.731Z,16.06
2022-10-14T08:27:59.715Z,16.06
2022-10-14T08:28:59.707Z,16.00
2022-10-14T08:29:59.679Z,16.02
2022-10-14T08:30:59.680Z,16.06
2022-10-14T08:31:59.677Z,16.03
2022-10-14T08:32:59.626Z,16.08
2022-10-14T08:33:59.607Z,16.09
2022-10-14T08:34:59.593Z,16.06
2022-10-14T08:35:59.575Z,16.02
2022-10-14T08:36:59.555Z,16.17
2022-10-14T08:37:59.537Z,16.22
2022-10-14T08:38:59.597Z,16.32
2022-10-14T08:39:59.512Z,16.21
2022-10-14T08:40:59.483Z,16.10
2022-10-14T08:41:59.470Z,16.06
2022-10-14T08:42:59.453Z,16.08
2022-10-14T08:43:59.433Z,16.17
2022-10-14T08:44:59.409Z,16.10
2022-10-14T08:45:59.400Z,16.18
2022-10-14T08:47:00.353Z,16.16
2022-10-14T08:47:59.393Z,16.08
2022-10-14T08:48:59.341Z,16.08
2022-10-14T08:49:59.325Z,16.08
2022-10-14T08:50:59.304Z,16.09
2022-10-14T08:51:59.288Z,16.22
2022-10-14T08:52:59.268Z,16.22
2022-10-14T08:53:59.252Z,16.21
2022-10-14T08:54:59.233Z,16.22
2022-10-14T08:55:59.219Z,16.18
2022-10-14T08:56:59.240Z,16.06
2022-10-14T08:57:59.335Z,16.24
2022-10-14T08:58:59.169Z,16.21
2022-10-14T08:59:59.155Z,16.44
2022-10-14T09:00:59.128Z,16.46
2022-10-14T09:01:59.108Z,16.34
2022-10-14T09:02:59.101Z,16.33
2022-10-14T09:03:59.167Z,16.28
2022-10-14T09:04:59.060Z,16.29
2022-10-14T09:05:59.047Z,16.29
2022-10-14T09:06:59.017Z,16.33
2022-10-14T09:07:59.012Z,16.29
2022-10-14T09:08:58.988Z,16.33
2022-10-14T09:09:58.976Z,16.29
2022-10-14T09:10:58.951Z,16.25
2022-10-14T09:11:58.936Z,16.18
2022-10-14T09:12:58.914Z,16.25
2022-10-14T09:13:58.921Z,16.28
2022-10-14T09:14:58.880Z,16.32
2022-10-14T09:15:58.864Z,16.33
2022-10-14T09:16:58.891Z,16.29
2022-10-14T09:17:58.879Z,16.49
2022-10-14T09:18:58.802Z,16.58
2022-10-14T09:19:58.808Z,16.62
2022-10-14T09:20:58.774Z,16.99
2022-10-14T09:21:58.756Z,17.38
2022-10-14T09:22:58.752Z,17.37
2022-10-14T09:23:58.721Z,17.34
2022-10-14T09:24:58.706Z,17.46
2022-10-14T09:25:58.684Z,17.65
2022-10-14T09:26:58.670Z,17.57
2022-10-14T09:27:58.658Z,17.72
2022-10-14T09:28:58.704Z,17.46
2022-10-14T09:29:58.621Z,17.46
2022-10-14T09:30:58.602Z,17.41
2022-10-14T09:31:58.590Z,17.34
2022-10-14T09:32:58.574Z,17.34
2022-10-14T09:33:58.560Z,17.43
2022-10-14T09:34:58.540Z,17.43
2022-10-14T09:36:58.569Z,17.31
2022-10-14T09:37:58.490Z,17.37
2022-10-14T09:39:02.391Z,17.46
2022-10-14T09:39:58.455Z,17.38
2022-10-14T09:40:58.436Z,17.68
2022-10-14T09:41:58.420Z,17.90
2022-10-14T09:42:58.404Z,18.03
2022-10-14T09:43:58.389Z,18.39
2022-10-14T09:44:58.402Z,18.54
2022-10-14T09:45:58.352Z,18.67
2022-10-14T09:46:58.340Z,19.05
2022-10-14T09:47:58.325Z,19.35
2022-10-14T09:48:58.310Z,19.37
2022-10-14T09:49:58.298Z,19.62
2022-10-14T09:50:58.273Z,19.42
2022-10-14T09:51:58.289Z,19.45
2022-10-14T09:52:58.245Z,19.59
2022-10-14T09:53:58.294Z,19.63
2022-10-14T09:54:58.228Z,19.82
2022-10-14T09:55:58.210Z,19.64
2022-10-14T09:56:58.184Z,19.47
2022-10-14T09:57:58.173Z,19.42
2022-10-14T09:58:58.161Z,19.42
2022-10-14T09:59:58.144Z,19.37
2022-10-14T10:00:58.134Z,19.17
2022-10-14T10:01:58.151Z,19.23
2022-10-14T10:02:58.107Z,19.24
2022-10-14T10:03:58.194Z,19.01
2022-10-14T10:04:58.077Z,18.64
2022-10-14T10:05:58.061Z,18.46
2022-10-14T10:06:58.046Z,18.17
2022-10-14T10:07:58.047Z,18.12
2022-10-14T10:08:58.011Z,18.03
2022-10-14T10:09:58.001Z,17.97
2022-10-14T10:11:02.018Z,18.01
2022-10-14T10:11:58.203Z,18.12
2022-10-14T10:12:58.259Z,18.12
2022-10-14T10:13:57.953Z,18.17
2022-10-14T10:14:58.255Z,17.99
2022-10-14T10:18:58.594Z,18.13
2022-10-14T10:19:57.861Z,18.11
2022-10-14T10:20:57.824Z,17.97
2022-10-14T10:21:58.141Z,17.86
2022-10-14T10:22:57.794Z,17.97
2022-10-14T10:25:57.760Z,18.02
2022-10-14T10:26:57.734Z,18.18
2022-10-14T10:27:58.051Z,18.26
2022-10-14T10:30:04.691Z,18.58
2022-10-14T10:30:57.664Z,18.42
2022-10-14T10:31:57.694Z,18.58
2022-10-14T10:32:57.640Z,18.63
2022-10-14T10:33:57.644Z,18.91
2022-10-14T10:35:57.589Z,18.79
2022-10-14T10:36:57.576Z,18.64
2022-10-14T10:37:57.555Z,18.52
2022-10-14T10:38:57.544Z,18.41
2022-10-14T10:39:57.545Z,18.48
2022-10-14T10:40:57.513Z,18.41
2022-10-14T10:41:57.501Z,18.33
2022-10-14T10:42:57.478Z,18.39
2022-10-14T10:43:57.478Z,18.45
2022-10-14T10:44:57.464Z,18.43
2022-10-14T10:45:57.453Z,18.45
2022-10-14T10:46:57.436Z,18.42
2022-10-14T10:47:57.419Z,18.52
2022-10-14T10:48:57.406Z,18.60
2022-10-14T10:50:57.372Z,18.56
2022-10-14T10:51:57.356Z,18.43
2022-10-14T10:52:57.337Z,18.45
2022-10-14T10:53:57.327Z,18.45
2022-10-14T10:54:57.305Z,18.17
2022-10-14T10:55:57.319Z,18.03
2022-10-14T10:56:57.275Z,17.93
2022-10-14T10:57:57.263Z,17.90
2022-10-14T10:58:57.247Z,17.90
2022-10-14T10:59:57.234Z,17.78
2022-10-14T11:00:57.208Z,17.81
2022-10-14T11:01:57.199Z,17.78
2022-10-14T11:02:57.181Z,17.75
2022-10-14T11:03:57.160Z,17.76
2022-10-14T11:04:57.147Z,17.69
2022-10-14T11:05:57.129Z,17.83
2022-10-14T11:06:57.112Z,17.75
2022-10-14T11:07:57.097Z,17.78
2022-10-14T11:08:57.089Z,17.83
2022-10-14T11:09:57.105Z,17.84
2022-10-14T11:10:57.045Z,17.86
2022-10-14T11:11:57.050Z,17.83
2022-10-14T11:12:57.012Z,17.76
2022-10-14T11:13:57.007Z,17.83
2022-10-14T11:14:56.978Z,17.81
2022-10-14T11:15:56.970Z,17.79
2022-10-14T11:16:56.960Z,17.81
2022-10-14T11:17:56.932Z,17.81
2022-10-14T11:18:56.918Z,17.72
2022-10-14T11:19:56.900Z,17.62
2022-10-14T11:20:56.881Z,17.65
2022-10-14T11:21:56.868Z,17.69
2022-10-14T11:22:56.846Z,17.62
2022-10-14T11:23:56.833Z,17.62
2022-10-14T11:24:56.814Z,17.63
2022-10-14T11:25:56.800Z,17.62
2022-10-14T11:26:56.785Z,17.59
2022-10-14T11:27:56.772Z,17.63
2022-10-14T11:28:56.808Z,17.62
2022-10-14T11:29:56.713Z,17.63
2022-10-14T11:30:56.702Z,17.66
2022-10-14T11:31:56.681Z,17.66
2022-10-14T11:32:56.667Z,17.71
2022-10-14T11:33:56.651Z,17.79
2022-10-14T11:34:56.633Z,17.81
2022-10-14T11:35:56.617Z,17.84
2022-10-14T11:36:56.600Z,17.87
2022-10-14T11:37:56.579Z,17.96
2022-10-14T11:38:56.563Z,17.91
2022-10-14T11:39:56.548Z,18.11
2022-10-14T11:40:56.529Z,18.13
2022-10-14T11:41:56.511Z,18.21
2022-10-14T11:42:56.500Z,18.17
2022-10-14T11:43:56.500Z,18.21
2022-10-14T11:44:56.472Z,18.26
2022-10-14T11:45:56.447Z,18.20
2022-10-14T11:46:56.442Z,18.20
2022-10-14T11:47:56.414Z,18.18
2022-10-14T11:48:56.402Z,18.18
2022-10-14T11:49:56.379Z,18.01
2022-10-14T11:50:56.369Z,18.20
2022-10-14T11:51:56.348Z,18.20
2022-10-14T11:52:56.331Z,18.24
2022-10-14T11:53:56.314Z,18.30
2022-10-14T11:54:56.298Z,18.24
2022-10-14T11:55:56.287Z,18.24
2022-10-14T11:56:56.268Z,18.28
2022-10-14T11:57:56.248Z,18.27
2022-10-14T11:58:56.233Z,18.21
2022-10-14T11:59:56.240Z,18.27
2022-10-14T12:00:56.200Z,18.33
2022-10-14T12:01:56.183Z,18.38
2022-10-14T12:02:56.229Z,18.31
2022-10-14T12:03:56.159Z,18.27
2022-10-14T12:04:56.137Z,18.18
2022-10-14T12:05:56.121Z,18.12
2022-10-14T12:06:56.107Z,18.11
2022-10-14T12:07:56.090Z,18.11
2022-10-14T12:08:56.070Z,18.18
2022-10-14T12:09:59.028Z,18.17
2022-10-14T12:10:56.078Z,18.08
2022-10-14T12:11:56.261Z,18.02
2022-10-14T12:12:56.550Z,17.94
2022-10-14T12:14:56.685Z,18.15
2022-10-14T12:15:56.311Z,18.23
2022-10-14T12:16:55.969Z,18.18
2022-10-14T12:17:55.922Z,18.26
2022-10-14T12:18:56.210Z,18.23
2022-10-14T12:20:55.878Z,18.28
2022-10-14T12:21:55.852Z,18.27
2022-10-14T12:22:55.838Z,18.33
2022-10-14T12:23:55.816Z,18.36
2022-10-14T12:24:55.807Z,18.43
2022-10-14T12:25:55.786Z,18.45
2022-10-14T12:26:55.773Z,18.43
2022-10-14T12:28:58.778Z,18.38
2022-10-14T12:29:55.950Z,18.31
2022-10-14T12:30:55.705Z,18.33
2022-10-14T12:31:55.736Z,18.21
2022-10-14T12:32:55.684Z,18.26
2022-10-14T12:33:55.991Z,18.23
2022-10-14T12:34:55.682Z,18.20
2022-10-14T12:35:55.633Z,18.11
2022-10-14T12:38:55.576Z,18.23
2022-10-14T12:39:55.895Z,18.21
2022-10-14T12:40:55.580Z,18.27
2022-10-14T12:41:55.829Z,18.24
2022-10-14T12:42:55.524Z,18.21
2022-10-14T12:43:55.522Z,18.26
2022-10-14T12:44:55.480Z,18.24
2022-10-14T12:45:55.463Z,18.30
2022-10-14T12:46:55.761Z,18.28
2022-10-14T12:48:55.634Z,18.28
2022-10-14T12:49:55.391Z,18.38
2022-10-14T12:50:56.086Z,18.27
2022-10-14T12:52:55.342Z,18.39
2022-10-14T12:53:55.325Z,18.28
2022-10-14T12:54:55.636Z,18.36
2022-10-14T12:55:55.296Z,18.39
2022-10-14T12:56:55.288Z,18.42
2022-10-14T12:57:55.257Z,18.41
2022-10-14T12:58:55.244Z,18.39
2022-10-14T12:59:55.223Z,18.41
2022-10-14T13:00:55.211Z,18.28
2022-10-14T13:01:55.244Z,18.31
2022-10-14T13:02:55.175Z,18.27
2022-10-14T13:03:55.231Z,18.26
2022-10-14T13:04:55.150Z,18.28
2022-10-14T13:05:55.153Z,18.27
2022-10-14T13:06:55.111Z,18.15
2022-10-14T13:07:55.091Z,18.21
2022-10-14T13:08:55.081Z,18.13
2022-10-14T13:09:55.058Z,18.24
2022-10-14T13:10:55.083Z,18.24